createdAt,value
2018-08-13T00:03:27.787Z,1.70
2018-08-13T00:08:31.588Z,1.73
2018-08-13T00:13:35.226Z,1.97
2018-08-13T00:18:38.886Z,2.00
2018-08-13T00:23:42.476Z,1.73
2018-08-13T00:28:46.287Z,2.00
2018-08-13T00:33:50.145Z,1.90
2018-08-13T00:38:53.693Z,1.80
2018-08-13T00:43:57.334Z,2.20
2018-08-13T00:49:05.994Z,1.80
2018-08-13T00:54:09.658Z,1.80
2018-08-13T00:59:13.214Z,2.00
2018-08-13T01:04:16.767Z,1.80
2018-08-13T01:09:20.398Z,2.10
2018-08-13T01:14:23.970Z,1.90
2018-08-13T01:19:27.549Z,1.87
2018-08-13T01:24:31.145Z,1.87
2018-08-13T01:29:35.134Z,2.03
2018-08-13T01:34:38.666Z,2.10
2018-08-13T01:39:42.300Z,2.27
2018-08-13T01:44:45.847Z,2.00
2018-08-13T01:49:54.374Z,2.00
2018-08-13T01:54:58.030Z,2.07
2018-08-13T02:00:01.906Z,2.20
2018-08-13T02:05:06.157Z,2.00
2018-08-13T02:10:12.424Z,2.10
2018-08-13T02:15:18.063Z,2.30
2018-08-13T02:20:21.661Z,1.97
2018-08-13T02:25:25.285Z,2.27
2018-08-13T02:30:28.934Z,1.93
2018-08-13T02:35:32.502Z,2.00
2018-08-13T02:40:36.118Z,1.97
2018-08-13T02:45:39.750Z,2.03
2018-08-13T02:50:43.316Z,2.10
2018-08-13T02:55:47.175Z,2.20
2018-08-13T03:00:50.834Z,2.20
2018-08-13T03:05:54.419Z,2.33
2018-08-13T03:10:58.271Z,1.90
2018-08-13T03:16:02.187Z,2.27
2018-08-13T03:21:05.804Z,2.10
2018-08-13T03:26:09.723Z,1.90
2018-08-13T03:31:13.454Z,1.90
2018-08-13T03:36:17.030Z,2.07
2018-08-13T03:41:20.605Z,2.10
2018-08-13T03:46:24.282Z,1.80
2018-08-13T03:51:27.834Z,1.80
2018-08-13T03:56:31.378Z,2.40
2018-08-13T04:01:35.139Z,2.53
2018-08-13T04:06:38.708Z,2.50
2018-08-13T04:11:42.279Z,2.20
2018-08-13T04:16:52.476Z,2.50
2018-08-13T04:21:56.474Z,2.10
2018-08-13T04:27:00.586Z,2.37
2018-08-13T04:32:04.299Z,2.50
2018-08-13T04:37:07.890Z,2.70
2018-08-13T04:42:11.450Z,2.40
2018-08-13T04:47:15.215Z,2.20
2018-08-13T04:52:18.910Z,2.50
2018-08-13T04:57:22.518Z,2.93
2018-08-13T05:02:26.230Z,2.67
2018-08-13T05:07:29.904Z,2.97
2018-08-13T05:12:33.449Z,2.67
2018-08-13T05:17:37.069Z,3.10
2018-08-13T05:22:40.732Z,2.83
2018-08-13T05:27:44.366Z,3.30
2018-08-13T05:32:48.002Z,3.03
2018-08-13T05:37:51.597Z,2.73
2018-08-13T05:42:55.231Z,3.67
2018-08-13T05:47:58.983Z,3.57
2018-08-13T05:53:02.635Z,3.40
2018-08-13T05:58:06.350Z,4.20
2018-08-13T06:03:10.087Z,3.40
2018-08-13T06:08:13.690Z,4.03
2018-08-13T06:13:17.368Z,3.57
2018-08-13T06:18:21.177Z,4.40
2018-08-13T06:23:24.794Z,3.70
2018-08-13T06:28:28.378Z,3.57
2018-08-13T06:33:32.613Z,3.50
2018-08-13T06:38:36.369Z,3.17
2018-08-13T06:43:40.038Z,3.40
2018-08-13T06:48:43.673Z,3.50
2018-08-13T06:53:47.267Z,3.73
2018-08-13T06:58:50.952Z,4.20
2018-08-13T07:03:54.759Z,3.03
2018-08-13T07:08:58.498Z,3.70
2018-08-13T07:14:02.135Z,3.70
2018-08-13T07:19:06.247Z,4.00
2018-08-13T07:24:09.861Z,4.10
2018-08-13T07:29:13.430Z,3.80
2018-08-13T07:34:17.183Z,3.50
2018-08-13T07:39:20.825Z,3.70
2018-08-13T07:44:24.514Z,3.70
2018-08-13T07:49:32.365Z,4.17
2018-08-13T07:54:36.050Z,3.30
2018-08-13T07:59:39.905Z,4.47
2018-08-13T08:04:43.494Z,3.53
2018-08-13T08:09:48.015Z,3.77
2018-08-13T08:14:51.646Z,3.80
2018-08-13T08:19:55.325Z,3.83
2018-08-13T08:24:58.914Z,3.60
2018-08-13T08:30:02.605Z,3.97
2018-08-13T08:35:07.883Z,4.93
2018-08-13T08:40:16.617Z,4.77
2018-08-13T08:45:25.965Z,4.50
2018-08-13T08:50:29.942Z,3.50
2018-08-13T08:55:33.605Z,5.33
2018-08-13T09:00:39.324Z,5.33
2018-08-13T09:05:43.049Z,6.10
2018-08-13T09:10:46.755Z,6.53
2018-08-13T09:15:50.366Z,6.13
2018-08-13T09:21:05.088Z,5.47
2018-08-13T09:26:20.255Z,6.13
2018-08-13T09:31:35.075Z,6.07
2018-08-13T09:36:38.746Z,6.83
2018-08-13T09:41:42.266Z,6.30
2018-08-13T09:46:50.942Z,6.10
2018-08-13T09:51:54.538Z,6.10
2018-08-13T09:56:58.258Z,7.10
2018-08-13T10:02:01.946Z,7.33
2018-08-13T10:07:10.882Z,7.77
2018-08-13T10:12:16.678Z,6.77
2018-08-13T10:17:20.306Z,6.10
2018-08-13T10:22:23.872Z,6.30
2018-08-13T10:27:27.490Z,6.77
2018-08-13T10:32:31.441Z,6.37
2018-08-13T10:37:35.348Z,6.47
2018-08-13T10:42:39.323Z,6.47
2018-08-13T10:47:42.976Z,7.00
2018-08-13T10:52:46.725Z,5.60
2018-08-13T10:57:50.395Z,5.97
2018-08-13T11:02:54.180Z,3.90
2018-08-13T11:07:57.759Z,3.97
2018-08-13T11:13:01.818Z,4.33
2018-08-13T11:18:05.616Z,4.80
2018-08-13T11:23:09.270Z,4.83
2018-08-13T11:28:15.205Z,5.07
2018-08-13T11:33:18.808Z,5.17
2018-08-13T11:38:22.528Z,5.10
2018-08-13T11:43:26.659Z,5.67
2018-08-13T11:48:30.379Z,5.30
2018-08-13T11:53:33.958Z,5.93
2018-08-13T11:58:37.533Z,6.23
2018-08-13T12:03:42.365Z,5.73
2018-08-13T12:08:45.969Z,5.87
2018-08-13T12:13:50.118Z,5.80
2018-08-13T12:18:53.834Z,5.77
2018-08-13T12:23:57.623Z,5.37
2018-08-13T12:29:01.265Z,5.03
2018-08-13T12:34:04.983Z,5.43
2018-08-13T12:39:11.095Z,5.40
2018-08-13T12:44:14.835Z,4.97
2018-08-13T12:49:18.595Z,4.70
2018-08-13T12:54:22.371Z,4.53
2018-08-13T12:59:26.001Z,4.80
2018-08-13T13:04:29.798Z,4.13
2018-08-13T13:09:33.873Z,4.10
2018-08-13T13:14:37.456Z,3.70
2018-08-13T13:19:41.014Z,3.13
2018-08-13T13:24:45.933Z,2.83
2018-08-13T13:29:49.643Z,2.80
2018-08-13T13:34:53.292Z,2.70
2018-08-13T13:39:56.988Z,2.20
2018-08-13T13:45:00.735Z,1.60
2018-08-13T13:50:14.278Z,1.70
2018-08-13T13:55:18.034Z,1.80
2018-08-13T14:00:22.144Z,4.03
2018-08-13T14:05:26.279Z,9.10
2018-08-13T14:10:29.923Z,1.87
2018-08-13T14:15:38.341Z,1.70
2018-08-13T14:20:43.916Z,1.90
2018-08-13T14:25:48.705Z,2.50
2018-08-13T14:30:52.499Z,2.20
2018-08-13T14:35:56.762Z,1.70
2018-08-13T14:41:00.991Z,1.70
2018-08-13T14:46:04.842Z,1.77
2018-08-13T14:51:09.098Z,1.73
2018-08-13T14:56:16.779Z,2.00
2018-08-13T15:01:21.129Z,1.70
2018-08-13T15:06:25.888Z,1.90
2018-08-13T15:11:34.808Z,1.70
2018-08-13T15:16:38.748Z,1.50
2018-08-13T15:21:42.840Z,1.43
2018-08-13T15:26:46.670Z,1.93
2018-08-13T15:31:50.266Z,1.57
2018-08-13T15:36:54.849Z,1.50
2018-08-13T15:41:58.576Z,1.70
2018-08-13T15:47:02.434Z,1.70
2018-08-13T15:52:06.387Z,1.70
2018-08-13T15:57:10.077Z,1.40
2018-08-13T16:02:14.725Z,1.40
2018-08-13T16:07:18.374Z,1.87
2018-08-13T16:12:22.375Z,1.73
2018-08-13T16:17:27.378Z,1.40
2018-08-13T16:22:31.022Z,1.40
2018-08-13T16:27:35.015Z,1.20
2018-08-13T16:32:38.653Z,1.50
2018-08-13T16:37:42.263Z,1.50
2018-08-13T16:42:46.286Z,1.20
2018-08-13T16:47:50.010Z,1.40
2018-08-13T16:52:53.983Z,1.10
2018-08-13T16:57:57.787Z,1.40
2018-08-13T17:03:01.662Z,1.40
2018-08-13T17:08:06.608Z,1.10
2018-08-13T17:13:10.540Z,1.33
2018-08-13T17:18:14.199Z,1.40
2018-08-13T17:23:17.907Z,1.20
2018-08-13T17:28:21.697Z,1.40
2018-08-13T17:33:25.386Z,1.40
2018-08-13T17:38:28.961Z,1.40
2018-08-13T17:43:32.650Z,1.60
2018-08-13T17:48:36.297Z,1.27
2018-08-13T17:53:40.071Z,1.33
2018-08-13T17:58:43.714Z,1.40
2018-08-13T18:03:47.359Z,1.40
2018-08-13T18:08:51.026Z,1.30
2018-08-13T18:13:54.857Z,1.50
2018-08-13T18:18:58.486Z,1.60
2018-08-13T18:24:02.715Z,1.13
2018-08-13T18:29:06.497Z,1.70
2018-08-13T18:34:10.228Z,1.80
2018-08-13T18:39:14.598Z,1.50
2018-08-13T18:44:18.577Z,1.30
2018-08-13T18:49:22.371Z,1.43
2018-08-13T18:54:26.050Z,1.77
2018-08-13T18:59:46.075Z,1.53
2018-08-13T19:04:50.762Z,1.30
2018-08-13T19:09:56.497Z,1.43
2018-08-13T19:15:00.100Z,1.77
2018-08-13T19:20:04.434Z,1.77
2018-08-13T19:25:14.302Z,1.50
2018-08-13T19:30:18.971Z,1.60
2018-08-13T19:35:22.590Z,1.70
2018-08-13T19:40:27.459Z,1.70
2018-08-13T19:45:31.327Z,1.70
2018-08-13T19:50:35.156Z,2.30
2018-08-13T19:55:38.810Z,2.50
2018-08-13T20:00:43.437Z,1.73
2018-08-13T20:05:47.508Z,1.67
2018-08-13T20:10:51.070Z,1.80
2018-08-13T20:15:54.886Z,1.70
2018-08-13T20:21:00.661Z,2.07
2018-08-13T20:26:04.311Z,1.77
2018-08-13T20:31:07.930Z,1.93
2018-08-13T20:36:11.507Z,1.80
2018-08-13T20:41:15.136Z,1.80
2018-08-13T20:46:19.022Z,1.70
2018-08-13T20:51:24.786Z,2.23
2018-08-13T20:56:28.516Z,2.10
2018-08-13T21:01:32.658Z,2.00
2018-08-13T21:06:36.296Z,1.80
2018-08-13T21:11:40.138Z,1.87
2018-08-13T21:16:49.494Z,1.97
2018-08-13T21:21:53.209Z,2.33
2018-08-13T21:26:56.847Z,2.10
2018-08-13T21:32:00.407Z,1.90
2018-08-13T21:37:08.030Z,2.30
2018-08-13T21:42:11.674Z,1.80
2018-08-13T21:47:15.809Z,2.03
2018-08-13T21:52:19.757Z,1.60
2018-08-13T21:57:24.698Z,1.60
2018-08-13T22:02:29.314Z,1.70
2018-08-13T22:07:33.046Z,1.83
2018-08-13T22:12:36.726Z,1.67
2018-08-13T22:17:41.463Z,1.83
2018-08-13T22:22:45.106Z,1.60
2018-08-13T22:27:48.811Z,1.70
2018-08-13T22:32:53.455Z,1.90
2018-08-13T22:37:57.111Z,1.63
2018-08-13T22:43:00.759Z,1.70
2018-08-13T22:48:04.682Z,1.70
2018-08-13T22:53:08.398Z,1.50
2018-08-13T22:58:12.238Z,2.00
2018-08-13T23:03:15.877Z,2.13
2018-08-13T23:08:19.640Z,1.90
2018-08-13T23:13:23.155Z,1.60
2018-08-13T23:18:26.958Z,2.30
2018-08-13T23:23:30.596Z,2.33
2018-08-13T23:28:34.327Z,1.90
2018-08-13T23:33:37.978Z,1.90
2018-08-13T23:38:41.556Z,2.13
2018-08-13T23:43:46.218Z,1.97
2018-08-13T23:48:49.946Z,2.43
2018-08-13T23:53:56.965Z,2.10
2018-08-13T23:59:00.498Z,2.23
